Time;durP1;ratioP1;P1;durP2;ratioP2;P2;SDS_P1;SDS_P2;PMS_P1;PMS_P2;Temp;Humidity;BMP_temperature;BMP_pressure;BME280_temperature;BME280_humidity;BME280_pressure;Samples;Min_cycle;Max_cycle;Signal;HPM_P1;HPM_P2
2022/10/19 00:01:20;;;;;;;16.52;5.38;;;;;;;13.31;64.99;93661.75;2071267;69;20168;-76
2022/10/19 00:03:48;;;;;;;18.08;5.47;;;;;;;13.26;65.31;93656.44;2068070;69;20231;-77
2022/10/19 00:06:15;;;;;;;18.27;6.10;;;;;;;13.21;64.71;93672.34;2071401;69;20221;-76
2022/10/19 00:08:42;;;;;;;13.80;5.38;;;;;;;13.25;64.46;93675.50;2071444;69;20151;-75
2022/10/19 00:11:09;;;;;;;11.55;5.45;;;;;;;13.08;65.37;93670.81;2071393;69;20179;-76
2022/10/19 00:13:36;;;;;;;12.98;5.22;;;;;;;13.18;65.13;93671.47;2071508;69;20144;-75
2022/10/19 00:16:07;;;;;;;14.10;5.38;;;;;;;13.18;64.60;93668.66;2068058;69;20129;-76
2022/10/19 00:18:32;;;;;;;16.05;5.65;;;;;;;13.28;64.06;93670.69;2071399;69;20133;-76
2022/10/19 00:21:18;;;;;;;14.70;5.43;;;;;;;13.11;65.27;93672.44;2071276;69;20527;-76
2022/10/19 00:23:44;;;;;;;17.75;5.50;;;;;;;13.07;65.32;93677.06;2071382;69;20196;-76
2022/10/19 00:26:11;;;;;;;14.00;5.95;;;;;;;13.02;65.17;93678.16;2071343;69;20243;-76
2022/10/19 00:28:38;;;;;;;12.93;5.63;;;;;;;13.02;64.98;93676.06;2071227;69;20164;-76
2022/10/19 00:31:06;;;;;;;11.45;4.72;;;;;;;12.94;65.90;93681.16;2071147;69;20136;-76
2022/10/19 00:33:33;;;;;;;18.65;5.43;;;;;;;13.02;65.22;93670.41;2068255;69;20217;-76
2022/10/19 00:35:58;;;;;;;13.40;5.22;;;;;;;13.00;64.94;93678.72;2071532;69;20152;-75
2022/10/19 00:38:24;;;;;;;14.98;4.68;;;;;;;13.07;64.60;93679.91;2071523;69;20160;-76
2022/10/19 00:40:50;;;;;;;11.88;5.50;;;;;;;13.03;65.62;93686.00;2071619;69;20189;-76
2022/10/19 00:43:57;;;;;;;13.20;5.38;;;;;;;12.94;65.31;93681.91;2071586;69;20145;-75
2022/10/19 00:46:23;;;;;;;13.02;4.78;;;;;;;12.87;66.04;93676.41;2065552;69;20638;-76
2022/10/19 00:48:51;;;;;;;16.13;5.15;;;;;;;12.91;65.18;93676.69;2068419;69;20140;-76
2022/10/19 00:51:17;;;;;;;10.65;4.70;;;;;;;12.87;65.07;93667.94;2071592;69;20155;-75
2022/10/19 00:53:43;;;;;;;13.43;5.13;;;;;;;12.71;66.65;93671.16;2071840;69;20148;-76
2022/10/19 00:56:13;;;;;;;18.45;5.30;;;;;;;12.54;67.16;93674.22;2071545;69;20160;-76
2022/10/19 00:58:41;;;;;;;17.65;6.75;;;;;;;12.50;67.04;93676.00;2071836;69;20137;-76
2022/10/19 01:01:11;;;;;;;19.15;6.28;;;;;;;12.60;65.85;93671.06;2071483;69;20231;-75
2022/10/19 01:03:38;;;;;;;15.80;5.38;;;;;;;12.60;65.77;93673.88;2071578;69;20156;-76
2022/10/19 01:06:05;;;;;;;13.73;5.18;;;;;;;12.48;66.99;93670.97;2071605;69;20235;-75
2022/10/19 01:08:30;;;;;;;14.85;5.45;;;;;;;12.57;65.96;93673.00;2068459;69;20613;-76
2022/10/19 01:11:34;;;;;;;13.90;5.60;;;;;;;12.55;65.93;93667.22;2065619;69;20148;-76
2022/10/19 01:14:09;;;;;;;11.57;4.78;;;;;;;12.29;67.77;93671.78;2063042;69;20237;-75
2022/10/19 01:16:47;;;;;;;16.10;5.90;;;;;;;12.47;66.24;93669.50;2071610;69;20143;-76
2022/10/19 01:19:13;;;;;;;10.98;5.20;;;;;;;12.48;65.95;93670.22;2071684;69;20227;-76
2022/10/19 01:21:49;;;;;;;17.08;5.95;;;;;;;12.44;67.11;93681.97;2071577;69;20235;-75
2022/10/19 01:24:17;;;;;;;15.98;5.75;;;;;;;12.47;65.50;93675.16;2071707;69;20168;-77
2022/10/19 01:27:11;;;;;;;11.27;5.13;;;;;;;12.50;65.68;93678.84;2071499;69;20213;-77
2022/10/19 01:29:37;;;;;;;13.07;5.53;;;;;;;12.41;66.23;93672.63;2071700;69;20584;-77
2022/10/19 01:32:13;;;;;;;13.85;5.50;;;;;;;12.51;65.68;93674.66;2071498;69;20136;-77
2022/10/19 01:35:00;;;;;;;16.27;5.40;;;;;;;12.41;66.16;93669.06;2071522;69;20125;-76
2022/10/19 01:37:44;;;;;;;15.93;5.72;;;;;;;12.45;65.61;93669.34;2071762;69;20205;-76
2022/10/19 01:40:34;;;;;;;12.70;5.82;;;;;;;12.38;65.83;93662.53;2071835;69;20159;-77
2022/10/19 01:43:15;;;;;;;15.73;5.40;;;;;;;12.34;66.34;93662.25;2071771;69;20132;-76
2022/10/19 01:45:52;;;;;;;13.18;5.30;;;;;;;12.29;67.20;93651.28;2071636;69;20152;-76
2022/10/19 01:48:24;;;;;;;12.77;5.70;;;;;;;12.35;66.29;93646.78;2071788;69;20156;-77
2022/10/19 01:51:00;;;;;;;11.07;5.30;;;;;;;12.23;66.57;93645.94;2071821;69;20212;-77
2022/10/19 01:53:31;;;;;;;11.43;4.82;;;;;;;12.36;65.44;93650.34;2071685;69;20148;-77
2022/10/19 01:56:00;;;;;;;15.13;5.60;;;;;;;12.23;66.74;93645.94;2071647;69;20152;-76
2022/10/19 02:02:15;;;;;;;14.43;5.25;;;;;;;12.15;66.75;93654.59;2071346;69;20127;-76
2022/10/19 02:04:41;;;;;;;16.67;6.20;;;;;;;11.86;68.62;93646.19;2071542;69;20221;-76
2022/10/19 02:07:09;;;;;;;15.45;5.63;;;;;;;12.06;67.55;93649.72;2071561;69;20546;-76
2022/10/19 02:09:34;;;;;;;14.98;6.78;;;;;;;12.02;66.83;93640.22;2068266;69;20633;-76
2022/10/19 02:12:06;;;;;;;23.15;9.02;;;;;;;11.91;66.90;93650.03;2071581;69;20148;-77
2022/10/19 02:14:39;;;;;;;18.27;7.00;;;;;;;12.00;66.81;93649.28;2071609;69;20160;-77
2022/10/19 02:17:10;;;;;;;17.33;6.63;;;;;;;12.00;66.74;93645.72;2068044;69;20140;-76
2022/10/19 02:19:36;;;;;;;15.30;6.03;;;;;;;11.98;66.56;93649.16;2071597;69;20157;-76
2022/10/19 02:22:01;;;;;;;14.20;6.78;;;;;;;11.88;66.47;93643.53;2071519;69;20468;-76
2022/10/19 02:24:27;;;;;;;17.55;7.05;;;;;;;11.93;66.01;93645.31;2068291;69;20326;-76
2022/10/19 02:26:54;;;;;;;20.35;6.68;;;;;;;11.99;65.78;93644.25;2065223;69;20141;-76
2022/10/19 02:29:20;;;;;;;21.17;7.22;;;;;;;11.96;66.33;93634.91;2071267;69;20140;-76
2022/10/19 02:31:46;;;;;;;17.27;6.57;;;;;;;11.88;66.92;93642.78;2071279;69;20221;-77
2022/10/19 02:34:12;;;;;;;17.10;6.70;;;;;;;11.84;66.30;93634.03;2071375;69;20140;-76
2022/10/19 02:36:38;;;;;;;13.63;6.28;;;;;;;11.73;67.29;93635.38;2071419;69;20177;-76
2022/10/19 02:39:05;;;;;;;16.05;6.05;;;;;;;11.71;67.14;93627.50;2068032;69;20529;-76
2022/10/19 02:41:41;;;;;;;15.18;6.05;;;;;;;11.81;66.85;93638.75;2071302;69;20152;-76
2022/10/19 02:44:17;;;;;;;14.68;5.57;;;;;;;11.81;66.92;93635.94;2071466;69;20144;-76
2022/10/19 02:46:46;;;;;;;16.35;5.60;;;;;;;11.82;66.72;93634.66;2071485;69;20239;-76
2022/10/19 02:49:13;;;;;;;12.93;5.15;;;;;;;11.73;68.14;93640.25;2071441;69;20160;-76
2022/10/19 02:52:06;;;;;;;13.98;5.90;;;;;;;11.76;67.61;93639.81;2071335;69;20589;-76
2022/10/19 02:54:32;;;;;;;15.95;5.68;;;;;;;11.81;67.34;93638.75;2071413;69;20156;-76
2022/10/19 02:56:58;;;;;;;17.27;6.20;;;;;;;11.86;67.00;93637.72;2067892;69;20171;-77
2022/10/19 02:59:24;;;;;;;17.73;6.10;;;;;;;11.91;65.87;93639.53;2071210;69;20136;-76
2022/10/19 03:01:51;;;;;;;12.95;5.63;;;;;;;11.85;66.97;93635.50;2071158;69;20223;-76
2022/10/19 03:04:17;;;;;;;14.15;5.47;;;;;;;11.79;66.75;93629.41;2071289;69;20147;-76
2022/10/19 03:06:43;;;;;;;15.30;5.30;;;;;;;11.78;67.26;93634.31;2071352;69;20144;-76
2022/10/19 03:09:08;;;;;;;17.23;5.53;;;;;;;11.80;67.30;93631.63;2071402;69;20144;-76
2022/10/19 03:11:34;;;;;;;16.27;5.88;;;;;;;11.86;66.59;93632.09;2071187;69;20187;-76
2022/10/19 03:14:00;;;;;;;13.13;5.50;;;;;;;11.77;66.73;93623.63;2071195;69;20210;-77
2022/10/19 03:16:25;;;;;;;15.05;5.88;;;;;;;11.75;67.16;93621.41;2071193;69;20156;-76
2022/10/19 03:18:51;;;;;;;22.13;8.80;;;;;;;11.65;67.32;93627.06;2071450;69;20515;-76
2022/10/19 03:21:17;;;;;;;26.55;9.40;;;;;;;11.69;66.92;93618.91;2071249;69;20139;-76
2022/10/19 03:23:43;;;;;;;27.95;9.52;;;;;;;11.68;67.33;93622.28;2071399;69;20146;-76
2022/10/19 03:26:12;;;;;;;19.65;8.32;;;;;;;11.67;67.17;93620.81;2071383;69;20239;-76
2022/10/19 03:28:37;;;;;;;28.15;8.70;;;;;;;11.67;67.12;93620.81;2071573;69;20635;-76
2022/10/19 03:31:03;;;;;;;23.77;8.35;;;;;;;11.60;67.16;93622.47;2068543;69;20183;-76
2022/10/19 03:33:29;;;;;;;24.13;7.78;;;;;;;11.59;67.47;93621.00;2072098;69;20144;-76
2022/10/19 03:36:16;;;;;;;17.90;7.70;;;;;;;11.57;67.14;93617.28;2071880;69;20148;-76
2022/10/19 03:38:43;;;;;;;13.55;6.82;;;;;;;11.55;67.06;93617.88;2071921;69;20183;-76
2022/10/19 03:41:08;;;;;;;16.27;6.50;;;;;;;11.60;66.56;93614.00;2068506;69;20188;-76
2022/10/19 03:43:34;;;;;;;17.55;6.05;;;;;;;11.57;66.94;93622.91;2071850;69;20515;-76
2022/10/19 03:46:00;;;;;;;18.15;7.07;;;;;;;11.57;66.98;93617.28;2068307;69;20140;-77
2022/10/19 03:48:26;;;;;;;16.00;6.10;;;;;;;11.53;66.74;93614.91;2068538;69;20149;-77
2022/10/19 03:51:04;;;;;;;19.20;5.97;;;;;;;11.50;67.30;93610.47;2071942;69;20150;-76
2022/10/19 03:53:30;;;;;;;16.98;5.93;;;;;;;11.48;66.97;93609.56;2071868;69;20144;-76
2022/10/19 03:56:14;;;;;;;15.10;5.65;;;;;;;11.49;66.75;93611.06;2071773;69;20140;-76
2022/10/19 03:58:41;;;;;;;17.95;6.20;;;;;;;11.18;69.00;93608.88;2071811;69;20171;-77
2022/10/19 04:01:09;;;;;;;20.50;6.30;;;;;;;11.24;68.03;93617.75;2068219;69;20670;-76
2022/10/19 04:03:35;;;;;;;17.67;6.13;;;;;;;11.30;67.81;93614.63;2071783;69;20148;-75
2022/10/19 04:06:02;;;;;;;17.15;6.50;;;;;;;11.26;67.72;93629.16;2071811;69;20235;-75
2022/10/19 04:08:28;;;;;;;18.98;7.07;;;;;;;11.19;68.21;93625.19;2071683;69;20172;-76
2022/10/19 04:11:05;;;;;;;17.23;6.90;;;;;;;11.24;67.91;93629.03;2071775;69;20145;-76
2022/10/19 04:13:32;;;;;;;18.67;6.72;;;;;;;11.20;67.30;93626.66;2071832;69;20288;-76
2022/10/19 04:15:57;;;;;;;16.40;7.05;;;;;;;11.16;67.33;93622.78;2068369;69;20205;-75
2022/10/19 04:18:23;;;;;;;24.30;7.38;;;;;;;11.12;68.02;93622.50;2071767;69;20140;-75
2022/10/19 04:20:55;;;;;;;15.15;6.75;;;;;;;11.11;68.44;93630.22;2071728;69;20152;-76
2022/10/19 04:23:21;;;;;;;14.73;7.93;;;;;;;11.03;68.85;93617.59;2071824;69;20136;-75
2022/10/19 04:25:46;;;;;;;18.42;8.15;;;;;;;10.96;68.78;93621.31;2068476;69;20352;-75
2022/10/19 04:28:12;;;;;;;24.48;9.38;;;;;;;11.04;68.43;93624.72;2071996;69;20137;-76
2022/10/19 04:30:37;;;;;;;15.70;7.70;;;;;;;11.01;68.18;93617.47;2071893;69;20168;-76
2022/10/19 04:33:03;;;;;;;19.88;7.50;;;;;;;11.04;68.13;93607.81;2071725;69;20140;-75
2022/10/19 04:35:29;;;;;;;16.60;6.05;;;;;;;10.96;69.31;93619.25;2071813;69;20140;-76
2022/10/19 04:37:54;;;;;;;19.15;6.93;;;;;;;11.01;68.65;93620.28;2071753;69;20148;-75
2022/10/19 04:40:20;;;;;;;20.13;7.93;;;;;;;11.00;68.87;93616.72;2071904;69;20148;-75
2022/10/19 04:42:45;;;;;;;24.95;10.00;;;;;;;11.05;68.08;93620.59;2071762;69;20140;-75
2022/10/19 04:45:11;;;;;;;25.13;12.13;;;;;;;10.93;68.80;93626.06;2071846;69;20160;-76
2022/10/19 04:47:36;;;;;;;25.08;11.27;;;;;;;10.92;68.71;93627.38;2068401;69;20142;-75
2022/10/19 04:50:02;;;;;;;22.45;10.48;;;;;;;10.94;69.19;93624.72;2071734;69;20259;-76
2022/10/19 04:52:28;;;;;;;26.90;9.70;;;;;;;10.88;68.35;93618.63;2068428;69;20172;-75
2022/10/19 04:54:53;;;;;;;24.92;9.73;;;;;;;10.91;68.46;93618.19;2071911;69;20147;-76
2022/10/19 04:57:19;;;;;;;16.00;8.30;;;;;;;10.92;68.06;93616.13;2068431;69;20594;-75
2022/10/19 04:59:46;;;;;;;16.58;7.80;;;;;;;10.86;68.46;93618.50;2071735;69;20128;-75
2022/10/19 05:02:11;;;;;;;17.60;8.05;;;;;;;10.86;68.88;93613.59;2071577;69;20299;-76
2022/10/19 05:04:37;;;;;;;24.08;6.85;;;;;;;10.92;68.24;93611.22;2071674;69;20148;-76
2022/10/19 05:07:03;;;;;;;17.05;7.13;;;;;;;10.84;67.78;93621.88;2071592;69;20184;-76
2022/10/19 05:09:28;;;;;;;25.05;8.68;;;;;;;10.86;68.10;93615.69;2071717;69;20176;-76
2022/10/19 05:11:54;;;;;;;21.70;9.35;;;;;;;10.60;69.33;93617.25;2071649;69;20148;-75
2022/10/19 05:14:19;;;;;;;23.05;11.05;;;;;;;10.69;68.59;93619.34;2071537;69;20568;-76
2022/10/19 05:16:45;;;;;;;24.55;11.88;;;;;;;10.70;68.48;93615.19;2071680;69;20228;-76
2022/10/19 05:19:12;;;;;;;26.05;14.27;;;;;;;10.74;67.83;93614.75;2071652;69;20152;-76
2022/10/19 05:21:38;;;;;;;24.48;12.50;;;;;;;10.79;67.17;93617.28;2071665;69;20170;-75
2022/10/19 05:24:04;;;;;;;20.40;9.88;;;;;;;10.71;67.88;93613.13;2071640;69;20152;-75
2022/10/19 05:26:29;;;;;;;23.02;10.00;;;;;;;10.70;67.94;93606.75;2068230;69;20147;-75
2022/10/19 05:29:00;;;;;;;23.60;9.15;;;;;;;10.75;67.16;93608.53;2071599;69;20167;-75
2022/10/19 05:31:31;;;;;;;20.40;8.88;;;;;;;10.68;67.80;93603.78;2068338;69;20133;-75
2022/10/19 05:33:57;;;;;;;19.63;8.20;;;;;;;10.68;67.55;93598.16;2071601;69;20538;-75
2022/10/19 05:36:26;;;;;;;19.25;8.43;;;;;;;10.68;68.28;93603.78;2071454;69;20155;-75
2022/10/19 05:38:56;;;;;;;16.48;7.53;;;;;;;10.67;68.24;93599.47;2068035;69;20148;-75
2022/10/19 05:41:23;;;;;;;17.50;6.88;;;;;;;10.68;67.69;93600.97;2071473;69;20144;-75
2022/10/19 05:43:54;;;;;;;19.02;7.63;;;;;;;10.70;68.40;93603.94;2071490;69;20174;-76
2022/10/19 05:46:19;;;;;;;19.02;8.60;;;;;;;10.65;68.60;93593.69;2071302;69;20176;-75
2022/10/19 05:48:46;;;;;;;23.00;7.43;;;;;;;10.63;68.69;93597.13;2071511;69;20175;-76
2022/10/19 05:51:14;;;;;;;22.90;8.10;;;;;;;10.65;68.66;93600.06;2071475;69;20148;-75
2022/10/19 05:53:40;;;;;;;21.73;6.88;;;;;;;10.66;67.83;93595.19;2071587;69;20517;-75
2022/10/19 05:56:08;;;;;;;20.50;7.05;;;;;;;10.61;69.12;93596.94;2071565;69;20167;-75
2022/10/19 05:58:34;;;;;;;15.75;6.25;;;;;;;10.65;67.40;93602.88;2071571;69;20140;-76
2022/10/19 06:01:01;;;;;;;22.25;8.50;;;;;;;10.21;71.98;93600.22;2068044;69;20137;-75
2022/10/19 06:03:28;;;;;;;21.63;9.80;;;;;;;10.42;70.48;93606.09;2071454;69;20147;-75
2022/10/19 06:05:54;;;;;;;17.25;7.93;;;;;;;10.54;69.33;93602.72;2071483;69;20198;-76
2022/10/19 06:08:22;;;;;;;16.27;8.00;;;;;;;10.57;68.36;93607.91;2068077;69;20563;-75
2022/10/19 06:10:48;;;;;;;21.70;9.02;;;;;;;10.48;70.30;93602.25;2071516;69;20168;-76
2022/10/19 06:13:15;;;;;;;19.90;8.30;;;;;;;10.60;69.40;93606.00;2071468;69;20511;-76
2022/10/19 06:15:41;;;;;;;19.70;8.63;;;;;;;10.63;68.74;93607.66;2071453;69;20271;-76
2022/10/19 06:18:11;;;;;;;22.48;9.27;;;;;;;10.64;68.80;93614.75;2068155;69;20165;-75
2022/10/19 06:20:38;;;;;;;13.43;8.00;;;;;;;10.63;68.07;93616.09;2068069;69;20159;-75
2022/10/19 06:23:04;;;;;;;21.73;8.07;;;;;;;10.64;68.61;93621.13;2068212;69;20203;-76
2022/10/19 06:25:31;;;;;;;15.95;7.30;;;;;;;10.67;68.20;93627.63;2071528;69;20144;-76
2022/10/19 06:27:57;;;;;;;18.20;7.95;;;;;;;10.70;67.81;93623.66;2065380;69;20143;-76
2022/10/19 06:30:23;;;;;;;20.80;9.65;;;;;;;10.42;72.01;93619.44;2071471;69;20140;-75
2022/10/19 06:32:49;;;;;;;26.63;10.15;;;;;;;10.38;70.87;93625.50;2071296;69;20164;-75
2022/10/19 06:35:15;;;;;;;25.73;11.35;;;;;;;10.52;69.71;93620.19;2071371;69;20145;-75
2022/10/19 06:37:41;;;;;;;24.40;10.68;;;;;;;10.55;69.90;93627.47;2071429;69;20144;-75
2022/10/19 06:40:07;;;;;;;23.55;10.23;;;;;;;10.62;68.68;93617.41;2071412;69;20148;-76
2022/10/19 06:42:33;;;;;;;25.95;12.57;;;;;;;10.55;68.38;93635.19;2071411;69;20289;-75
2022/10/19 06:44:59;;;;;;;22.98;12.35;;;;;;;10.58;68.26;93636.81;2065276;69;20164;-75
2022/10/19 06:47:29;;;;;;;37.25;14.70;;;;;;;10.54;68.79;93630.88;2065119;69;20132;-74
2022/10/19 06:49:56;;;;;;;35.58;16.58;;;;;;;10.54;69.12;93630.88;2071354;69;20598;-75
2022/10/19 06:52:21;;;;;;;37.67;16.10;;;;;;;10.60;69.62;93628.53;2071276;69;20147;-75
2022/10/19 06:54:47;;;;;;;27.98;13.82;;;;;;;10.58;69.38;93637.56;2071330;69;20144;-76
2022/10/19 06:57:13;;;;;;;27.73;12.57;;;;;;;10.60;68.96;93626.44;2071192;69;20140;-76
2022/10/19 06:59:38;;;;;;;21.90;11.27;;;;;;;10.65;68.72;93631.03;2067962;69;20179;-76
2022/10/19 07:02:04;;;;;;;25.77;11.77;;;;;;;10.66;68.52;93626.16;2071406;69;20156;-77
2022/10/19 07:04:30;;;;;;;29.08;11.02;;;;;;;10.69;68.60;93624.97;2071781;69;20141;-77
2022/10/19 07:06:55;;;;;;;24.17;10.70;;;;;;;10.68;68.75;93634.78;2068534;69;20158;-77
2022/10/19 07:09:21;;;;;;;31.38;9.95;;;;;;;10.69;69.01;93628.53;2072007;69;20499;-76
2022/10/19 07:11:47;;;;;;;19.55;10.50;;;;;;;10.69;68.99;93622.16;2071847;69;20244;-76
2022/10/19 07:14:13;;;;;;;25.45;10.45;;;;;;;10.73;68.58;93622.47;2068522;69;20172;-76
2022/10/19 07:16:39;;;;;;;20.02;11.65;;;;;;;10.76;68.66;93618.47;2071775;69;20251;-76
2022/10/19 07:19:04;;;;;;;24.73;11.98;;;;;;;10.79;68.33;93627.81;2071897;69;20136;-77
2022/10/19 07:21:30;;;;;;;23.15;11.60;;;;;;;10.74;69.30;93629.59;2071786;69;20183;-75
2022/10/19 07:23:56;;;;;;;19.25;10.65;;;;;;;10.74;69.49;93629.59;2071936;69;20144;-75
2022/10/19 07:26:25;;;;;;;21.58;9.88;;;;;;;10.85;67.75;93631.06;2068520;69;20241;-75
2022/10/19 07:28:53;;;;;;;20.90;10.32;;;;;;;10.46;72.08;93622.56;2071798;69;20171;-76
2022/10/19 07:31:21;;;;;;;21.33;11.30;;;;;;;10.72;69.65;93620.22;2071799;69;20163;-76
2022/10/19 07:33:59;;;;;;;22.80;10.02;;;;;;;10.77;69.53;93619.97;2068498;69;20606;-76
2022/10/19 07:36:25;;;;;;;18.65;8.68;;;;;;;10.80;70.03;93610.31;2068478;69;20171;-76
2022/10/19 07:38:51;;;;;;;22.85;8.57;;;;;;;10.85;69.36;93609.28;2071849;69;20689;-74
2022/10/19 07:41:19;;;;;;;18.10;8.38;;;;;;;10.89;69.63;93608.84;2071804;69;20144;-76
2022/10/19 07:43:46;;;;;;;20.95;8.23;;;;;;;10.94;68.43;93602.16;2071747;69;20149;-75
2022/10/19 07:46:20;;;;;;;20.48;8.88;;;;;;;10.97;68.34;93608.72;2071606;69;20149;-75
2022/10/19 07:48:45;;;;;;;16.17;8.65;;;;;;;11.03;67.60;93604.25;2071732;69;20633;-75
2022/10/19 07:51:13;;;;;;;18.85;8.20;;;;;;;11.00;68.30;93601.91;2071732;69;20148;-74
2022/10/19 07:53:39;;;;;;;17.98;8.32;;;;;;;11.04;68.26;93605.00;2071807;69;20262;-74
2022/10/19 07:56:08;;;;;;;19.48;8.48;;;;;;;11.02;68.50;93597.13;2071938;69;20235;-75
2022/10/19 07:58:35;;;;;;;19.80;8.27;;;;;;;11.04;68.71;93602.16;2071966;69;20187;-74
2022/10/19 08:01:09;;;;;;;22.83;9.75;;;;;;;11.05;69.03;93590.31;2071574;69;20155;-75
2022/10/19 08:03:36;;;;;;;17.42;8.25;;;;;;;11.09;67.77;93592.72;2071821;69;20143;-75
2022/10/19 08:06:04;;;;;;;15.98;8.77;;;;;;;11.27;69.84;93587.63;2068403;69;20140;-76
2022/10/19 08:08:30;;;;;;;18.40;8.23;;;;;;;11.79;68.24;93596.31;2071995;69;20159;-75
2022/10/19 08:10:56;;;;;;;23.17;8.93;;;;;;;12.07;68.46;93588.38;2071790;69;20152;-75
2022/10/19 08:13:22;;;;;;;25.70;9.65;;;;;;;12.44;68.68;93585.97;2068333;69;20483;-76
2022/10/19 08:15:48;;;;;;;25.73;9.05;;;;;;;12.75;67.97;93577.47;2071631;69;20663;-76
2022/10/19 08:18:13;;;;;;;20.35;8.18;;;;;;;13.10;67.43;93583.31;2071773;69;20456;-76
2022/10/19 08:20:43;;;;;;;22.05;8.35;;;;;;;13.56;68.99;93582.06;2071669;69;20526;-76
2022/10/19 08:23:09;;;;;;;18.67;7.97;;;;;;;13.94;67.88;93575.25;2071676;69;20588;-75
2022/10/19 08:25:36;;;;;;;22.60;7.25;;;;;;;14.15;66.04;93570.81;2071683;69;20617;-76
2022/10/19 08:28:02;;;;;;;17.40;6.88;;;;;;;14.61;66.59;93564.41;2071750;69;20621;-76
2022/10/19 08:30:27;;;;;;;21.52;7.97;;;;;;;15.13;64.65;93560.38;2068321;69;20152;-75
2022/10/19 08:32:53;;;;;;;20.20;8.02;;;;;;;15.28;63.59;93559.09;2071486;69;20139;-75
2022/10/19 08:35:19;;;;;;;14.68;5.53;;;;;;;15.77;63.24;93564.69;2071811;69;20167;-75
2022/10/19 08:37:44;;;;;;;13.80;6.13;;;;;;;16.25;62.07;93558.06;2071853;69;20133;-75
2022/10/19 08:40:21;;;;;;;17.75;5.13;;;;;;;16.27;60.66;93557.47;2071685;69;20171;-75
2022/10/19 08:43:10;;;;;;;14.02;5.63;;;;;;;17.00;58.94;93554.88;2071573;69;20313;-75
2022/10/19 08:45:47;;;;;;;17.83;6.03;;;;;;;17.03;58.52;93557.16;2069477;69;20148;-75
2022/10/19 08:48:41;;;;;;;18.08;6.10;;;;;;;17.03;56.83;93557.16;2071699;69;20610;-76
2022/10/19 08:51:11;;;;;;;20.45;6.82;;;;;;;17.18;57.61;93555.00;2071036;69;20133;-75
2022/10/19 08:53:51;;;;;;;13.90;5.60;;;;;;;17.40;55.57;93558.25;2071721;69;20148;-74
2022/10/19 08:56:25;;;;;;;17.73;6.57;;;;;;;17.93;56.42;93561.56;2071795;69;20215;-76
2022/10/19 08:59:09;;;;;;;16.00;4.53;;;;;;;18.11;53.35;93560.94;2071601;69;20144;-76
2022/10/19 09:01:47;;;;;;;19.25;9.07;;;;;;;18.61;53.27;93558.94;2071499;69;20160;-75
2022/10/19 09:04:18;;;;;;;32.42;12.98;;;;;;;18.04;54.52;93554.94;2071561;69;20151;-75
2022/10/19 09:07:06;;;;;;;22.88;9.23;;;;;;;19.19;54.61;93548.63;2071755;69;20209;-76
2022/10/19 09:09:34;;;;;;;15.32;5.15;;;;;;;19.43;52.75;93548.91;2071546;69;20137;-74
2022/10/19 09:12:05;;;;;;;11.00;4.60;;;;;;;19.52;51.22;93545.75;2071541;69;20155;-74
2022/10/19 09:15:00;;;;;;;11.55;3.28;;;;;;;19.65;48.83;93534.81;2071745;69;20228;-75
2022/10/19 09:17:27;;;;;;;14.10;3.80;;;;;;;19.81;47.05;93535.50;2067199;69;20128;-75
2022/10/19 09:19:53;;;;;;;16.77;6.57;;;;;;;19.97;47.73;93530.41;2068295;69;20160;-75
2022/10/19 09:22:24;;;;;;;15.73;3.70;;;;;;;20.25;47.30;93527.91;2071624;69;20520;-75
2022/10/19 09:25:15;;;;;;;14.60;3.30;;;;;;;20.88;46.87;93523.06;2071539;69;20556;-75
2022/10/19 09:27:44;;;;;;;12.75;3.80;;;;;;;20.90;44.79;93518.16;2069090;69;20222;-75
2022/10/19 09:30:18;;;;;;;12.02;4.47;;;;;;;21.48;44.63;93526.56;2071636;69;20221;-75
2022/10/19 09:32:44;;;;;;;10.43;4.13;;;;;;;21.80;46.14;93515.44;2068048;69;20141;-75
2022/10/19 09:35:32;;;;;;;11.05;3.70;;;;;;;22.64;44.18;93512.28;2071678;69;20511;-75
2022/10/19 09:37:59;;;;;;;14.95;4.30;;;;;;;22.88;42.76;93512.94;2071551;69;20152;-75
2022/10/19 09:40:27;;;;;;;13.70;3.80;;;;;;;22.42;43.01;93507.34;2068147;69;20644;-74
2022/10/19 09:42:57;;;;;;;16.65;4.10;;;;;;;22.05;43.06;93506.22;2071477;69;20594;-76
2022/10/19 09:45:25;;;;;;;10.70;3.17;;;;;;;22.71;43.61;93506.00;2071579;69;20251;-75
2022/10/19 09:47:52;;;;;;;14.75;3.92;;;;;;;23.13;41.02;93497.13;2071441;69;20137;-75
2022/10/19 09:50:23;;;;;;;12.35;3.75;;;;;;;22.80;41.20;93498.34;2071525;69;20188;-76
2022/10/19 09:52:54;;;;;;;14.52;3.72;;;;;;;23.06;41.06;93498.38;2071549;69;20168;-75
2022/10/19 09:55:27;;;;;;;11.40;3.33;;;;;;;23.62;41.24;93498.38;2071569;69;20148;-73
2022/10/19 09:58:23;;;;;;;11.68;3.40;;;;;;;24.19;40.22;93507.66;2071534;69;20128;-74
2022/10/19 10:00:56;;;;;;;13.88;3.97;;;;;;;23.74;40.22;93495.84;2070880;69;20538;-74
2022/10/19 10:03:34;;;;;;;13.82;4.20;;;;;;;24.34;39.50;93497.94;2068081;69;20144;-74
2022/10/19 10:06:20;;;;;;;11.93;3.40;;;;;;;24.32;39.33;93489.97;2071584;69;20155;-74
2022/10/19 10:08:56;;;;;;;12.57;3.33;;;;;;;24.91;38.58;93492.66;2071559;69;20563;-74
2022/10/19 10:11:32;;;;;;;15.25;3.67;;;;;;;24.93;37.38;93493.44;2068354;69;20136;-74
2022/10/19 10:14:05;;;;;;;9.30;3.38;;;;;;;24.62;36.88;93494.22;2071540;69;20152;-74
2022/10/19 10:16:34;;;;;;;9.48;3.22;;;;;;;24.97;37.00;93492.75;2068197;69;20140;-75
2022/10/19 10:19:11;;;;;;;12.00;3.58;;;;;;;25.30;36.74;93483.34;2068115;69;20132;-76
2022/10/19 10:21:48;;;;;;;15.93;3.83;;;;;;;25.68;36.94;93494.09;2071334;69;20132;-76
2022/10/19 10:24:17;;;;;;;23.92;4.72;;;;;;;25.40;36.96;93488.56;2071447;69;20172;-75
2022/10/19 10:26:45;;;;;;;15.98;4.20;;;;;;;25.77;35.96;93477.69;2071381;69;20193;-77
2022/10/19 10:29:24;;;;;;;12.70;3.40;;;;;;;25.94;35.22;93488.06;2071335;69;20172;-76
2022/10/19 10:31:59;;;;;;;16.42;4.13;;;;;;;25.49;35.73;93480.78;2067906;69;20251;-76
2022/10/19 10:34:27;;;;;;;14.85;4.28;;;;;;;26.24;35.24;93476.22;2070463;69;20156;-75
2022/10/19 10:36:55;;;;;;;15.57;3.92;;;;;;;26.34;35.04;93469.88;2070278;69;20160;-75
2022/10/19 10:39:23;;;;;;;13.60;3.50;;;;;;;26.56;34.18;93475.97;2071319;69;20267;-74
2022/10/19 10:41:49;;;;;;;12.20;3.42;;;;;;;27.52;33.12;93462.63;2071787;69;20170;-74
2022/10/19 10:44:25;;;;;;;12.57;3.30;;;;;;;26.53;34.51;93468.00;2071611;69;20128;-75
2022/10/19 10:47:02;;;;;;;11.18;2.90;;;;;;;28.65;31.04;93446.09;2071511;69;20167;-73
2022/10/19 10:49:36;;;;;;;13.63;3.20;;;;;;;29.81;29.83;93458.75;2071527;69;20537;-75
2022/10/19 10:52:14;;;;;;;12.20;3.30;;;;;;;29.29;29.99;93460.13;2071383;69;20679;-75
2022/10/19 10:54:40;;;;;;;13.40;3.22;;;;;;;30.78;28.54;93451.41;2071815;69;20157;-74
2022/10/19 10:57:10;;;;;;;16.27;3.92;;;;;;;31.62;28.06;93448.81;2071567;69;20229;-73
2022/10/19 10:59:43;;;;;;;13.45;3.53;;;;;;;32.14;26.50;93446.25;2071702;69;20517;-74
2022/10/19 11:02:13;;;;;;;9.30;3.05;;;;;;;32.79;26.32;93439.78;2071631;69;20526;-75
2022/10/19 11:04:45;;;;;;;12.82;2.97;;;;;;;33.24;25.31;93430.53;2071846;69;20283;-77
2022/10/19 11:07:19;;;;;;;9.48;2.88;;;;;;;33.88;24.98;93427.41;2071851;69;20231;-76
2022/10/19 11:09:53;;;;;;;11.30;2.78;;;;;;;35.02;22.64;93436.41;2072020;69;20713;-77
2022/10/19 11:12:30;;;;;;;12.35;2.88;;;;;;;34.17;23.23;93421.84;2071787;69;20612;-77
2022/10/19 11:15:03;;;;;;;12.43;2.60;;;;;;;33.12;23.65;93422.63;2071574;69;20219;-77
2022/10/19 11:17:32;;;;;;;17.00;3.15;;;;;;;34.51;22.95;93419.84;2071686;69;20526;-77
2022/10/19 11:19:58;;;;;;;9.38;2.38;;;;;;;35.26;22.83;93415.41;2071717;69;20235;-79
2022/10/19 11:22:33;;;;;;;10.52;2.55;;;;;;;36.04;22.52;93413.69;2071726;69;20152;-77
2022/10/19 11:25:17;;;;;;;12.73;2.42;;;;;;;37.07;20.85;93406.59;2071973;69;20136;-77
2022/10/19 11:27:45;;;;;;;15.15;2.97;;;;;;;35.26;22.87;93394.22;2071599;69;20180;-75
2022/10/19 11:30:36;;;;;;;10.77;2.13;;;;;;;35.59;21.62;93389.09;2068366;69;20144;-75
2022/10/19 11:33:10;;;;;;;11.70;2.23;;;;;;;37.02;21.27;93394.28;2071596;69;20141;-76
2022/10/19 11:35:52;;;;;;;18.67;3.00;;;;;;;35.83;21.21;93387.81;2071536;69;20132;-77
2022/10/19 11:38:59;;;;;;;9.82;2.25;;;;;;;35.48;21.42;93379.09;2071606;69;20219;-77
2022/10/19 11:41:38;;;;;;;14.35;2.90;;;;;;;36.93;20.50;93380.59;2055886;69;20149;-76